createdAt,value
2019-03-29T00:01:21.926Z,41.93
2019-03-29T00:03:48.532Z,42.43
2019-03-29T00:06:15.304Z,44.37
2019-03-29T00:08:42.284Z,42.37
2019-03-29T00:11:09.134Z,44.07
2019-03-29T00:13:35.868Z,44.03
2019-03-29T00:16:02.653Z,43.57
2019-03-29T00:18:29.494Z,45.87
2019-03-29T00:20:56.331Z,46.40
2019-03-29T00:23:23.289Z,46.30
2019-03-29T00:25:51.948Z,44.63
2019-03-29T00:28:18.698Z,45.30
2019-03-29T00:30:45.958Z,46.27
2019-03-29T00:33:14.593Z,44.73
2019-03-29T00:35:41.538Z,44.73
2019-03-29T00:38:08.293Z,46.20
2019-03-29T00:40:34.912Z,42.43
2019-03-29T00:43:01.568Z,44.00
2019-03-29T00:45:30.168Z,47.40
2019-03-29T00:47:56.855Z,47.23
2019-03-29T00:50:23.580Z,45.53
2019-03-29T00:52:50.172Z,45.73
2019-03-29T00:55:16.861Z,45.03
2019-03-29T00:57:43.538Z,44.50
2019-03-29T01:00:10.822Z,46.57
2019-03-29T01:02:37.462Z,45.27
2019-03-29T01:05:06.071Z,45.60
2019-03-29T01:07:32.951Z,45.97
2019-03-29T01:09:59.720Z,46.43
2019-03-29T01:12:26.451Z,46.90
2019-03-29T01:14:53.095Z,47.80
2019-03-29T01:17:21.501Z,47.40
2019-03-29T01:19:48.122Z,47.17
2019-03-29T01:22:14.942Z,46.47
2019-03-29T01:24:43.601Z,44.93
2019-03-29T01:27:10.364Z,48.23
2019-03-29T01:29:37.032Z,44.80
2019-03-29T01:32:03.722Z,45.73
2019-03-29T01:34:30.325Z,45.43
2019-03-29T01:36:57.591Z,43.07
2019-03-29T01:39:24.209Z,46.30
2019-03-29T01:41:50.986Z,45.30
2019-03-29T01:44:17.616Z,44.83
2019-03-29T01:46:44.200Z,43.40
2019-03-29T01:49:10.998Z,46.77
2019-03-29T01:51:37.761Z,43.33
2019-03-29T01:54:04.483Z,44.47
2019-03-29T01:56:31.008Z,43.13
2019-03-29T01:58:58.069Z,47.03
2019-03-29T02:01:24.700Z,43.50
2019-03-29T02:03:51.415Z,43.13
2019-03-29T02:06:19.175Z,46.63
2019-03-29T02:08:46.401Z,45.00
2019-03-29T02:11:13.215Z,46.03
2019-03-29T02:13:40.038Z,49.10
2019-03-29T02:16:06.799Z,46.50
2019-03-29T02:18:33.461Z,44.17
2019-03-29T02:21:02.131Z,48.60
2019-03-29T02:23:28.867Z,45.53
2019-03-29T02:25:55.537Z,46.67
2019-03-29T02:28:22.185Z,49.03
2019-03-29T02:30:48.842Z,45.13
2019-03-29T02:33:16.378Z,48.53
2019-03-29T02:35:43.010Z,47.37
2019-03-29T02:38:09.684Z,47.67
2019-03-29T02:40:36.666Z,46.33
2019-03-29T02:43:03.476Z,48.20
2019-03-29T02:45:30.684Z,51.03
2019-03-29T02:47:57.977Z,46.43
2019-03-29T02:50:24.605Z,51.03
2019-03-29T02:52:51.346Z,51.73
2019-03-29T02:55:18.371Z,52.30
2019-03-29T02:57:45.236Z,52.03
2019-03-29T03:00:12.902Z,51.60
2019-03-29T03:02:39.707Z,54.67
2019-03-29T03:05:08.323Z,52.10
2019-03-29T03:07:36.621Z,53.87
2019-03-29T03:10:06.942Z,51.93
2019-03-29T03:12:33.802Z,51.07
2019-03-29T03:15:00.511Z,53.33
2019-03-29T03:17:27.141Z,50.40
2019-03-29T03:19:53.786Z,52.70
2019-03-29T03:22:20.398Z,50.20
2019-03-29T03:24:47.257Z,49.60
2019-03-29T03:27:14.021Z,52.00
2019-03-29T03:29:40.625Z,50.27
2019-03-29T03:32:07.417Z,51.77
2019-03-29T03:34:34.007Z,53.60
2019-03-29T03:37:01.051Z,52.93
2019-03-29T03:39:32.306Z,53.73
2019-03-29T03:41:56.280Z,52.97
2019-03-29T03:44:23.014Z,55.07
2019-03-29T03:46:49.865Z,50.00
2019-03-29T03:49:16.700Z,49.60
2019-03-29T03:51:43.587Z,51.03
2019-03-29T03:54:12.298Z,51.93
2019-03-29T03:56:39.084Z,54.10
2019-03-29T03:59:06.123Z,50.43
2019-03-29T04:01:32.883Z,55.77
2019-03-29T04:03:59.507Z,53.63
2019-03-29T04:06:26.108Z,51.83
2019-03-29T04:08:52.727Z,53.23
2019-03-29T04:11:19.477Z,51.37
2019-03-29T04:13:46.066Z,55.17
2019-03-29T04:16:12.936Z,52.90
2019-03-29T04:18:39.627Z,53.80
2019-03-29T04:21:06.355Z,54.43
2019-03-29T04:23:33.216Z,54.23
2019-03-29T04:26:00.042Z,55.33
2019-03-29T04:28:27.768Z,54.23
2019-03-29T04:30:54.550Z,55.47
2019-03-29T04:33:21.187Z,52.97
2019-03-29T04:35:47.836Z,54.83
2019-03-29T04:38:14.574Z,57.00
2019-03-29T04:40:41.404Z,53.67
2019-03-29T04:43:08.043Z,54.70
2019-03-29T04:45:34.782Z,55.03
2019-03-29T04:48:01.716Z,54.13
2019-03-29T04:50:28.589Z,56.33
2019-03-29T04:52:55.201Z,56.47
2019-03-29T04:55:21.930Z,57.40
2019-03-29T04:57:48.647Z,57.07
2019-03-29T05:00:15.755Z,54.17
2019-03-29T05:02:42.525Z,55.03
2019-03-29T05:05:09.340Z,59.30
2019-03-29T05:07:37.353Z,56.63
2019-03-29T05:10:19.920Z,55.70
2019-03-29T05:12:34.655Z,56.03
2019-03-29T05:15:01.522Z,55.40
2019-03-29T05:17:28.211Z,56.83
2019-03-29T05:19:54.822Z,57.13
2019-03-29T05:22:21.539Z,54.93
2019-03-29T05:24:48.493Z,57.17
2019-03-29T05:27:15.053Z,61.83
2019-03-29T05:29:41.674Z,62.77
2019-03-29T05:32:08.320Z,62.63
2019-03-29T05:34:35.019Z,62.60
2019-03-29T05:37:03.658Z,59.00
2019-03-29T05:39:30.405Z,58.10
2019-03-29T05:41:57.042Z,58.80
2019-03-29T05:44:23.654Z,55.90
2019-03-29T05:46:51.220Z,59.60
2019-03-29T05:49:17.936Z,57.97
2019-03-29T05:51:44.657Z,57.23
2019-03-29T05:54:11.527Z,58.17
2019-03-29T05:56:38.460Z,57.60
2019-03-29T05:59:05.182Z,57.60
2019-03-29T06:01:31.898Z,58.57
2019-03-29T06:03:58.948Z,59.43
2019-03-29T06:06:25.798Z,58.33
2019-03-29T06:08:53.879Z,58.43
2019-03-29T06:11:20.646Z,59.50
2019-03-29T06:13:47.372Z,58.13
2019-03-29T06:16:14.065Z,59.27
2019-03-29T06:18:40.783Z,60.63
2019-03-29T06:21:07.448Z,63.03
2019-03-29T06:23:34.163Z,62.47
2019-03-29T06:26:00.910Z,60.40
2019-03-29T06:28:29.964Z,58.70
2019-03-29T06:30:56.042Z,60.83
2019-03-29T06:33:22.970Z,61.63
2019-03-29T06:35:52.348Z,61.77
2019-03-29T06:38:22.461Z,65.37
2019-03-29T06:41:01.713Z,63.27
2019-03-29T06:43:17.811Z,63.47
2019-03-29T06:45:48.191Z,63.03
2019-03-29T06:48:13.486Z,61.77
2019-03-29T06:50:40.167Z,61.83
2019-03-29T06:53:08.005Z,64.47
2019-03-29T06:55:34.692Z,62.63
2019-03-29T06:58:01.438Z,65.03
2019-03-29T07:00:28.313Z,64.20
2019-03-29T07:02:55.036Z,66.80
2019-03-29T07:05:21.640Z,64.57
2019-03-29T07:07:48.419Z,64.40
2019-03-29T07:10:29.183Z,65.73
2019-03-29T07:12:56.618Z,64.27
2019-03-29T07:15:23.536Z,68.33
2019-03-29T07:17:50.187Z,63.10
2019-03-29T07:20:16.933Z,69.13
2019-03-29T07:22:45.585Z,67.10
2019-03-29T07:25:12.996Z,65.27
2019-03-29T07:27:53.552Z,66.10
2019-03-29T07:30:21.740Z,64.73
2019-03-29T07:32:48.587Z,67.97
2019-03-29T07:35:15.462Z,65.37
2019-03-29T07:37:45.898Z,66.73
2019-03-29T07:40:15.165Z,69.67
2019-03-29T07:42:41.832Z,65.60
2019-03-29T07:45:11.790Z,68.73
2019-03-29T07:47:38.577Z,68.13
2019-03-29T07:50:06.003Z,68.83
2019-03-29T07:52:32.770Z,76.73
2019-03-29T07:55:00.738Z,63.90
2019-03-29T07:57:27.518Z,68.10
2019-03-29T07:59:54.348Z,68.93
2019-03-29T08:02:21.608Z,68.93
2019-03-29T08:04:48.401Z,65.87
2019-03-29T08:07:26.596Z,68.23
2019-03-29T08:09:44.200Z,66.83
2019-03-29T08:12:10.870Z,66.53
2019-03-29T08:14:37.523Z,68.20
2019-03-29T08:17:04.264Z,65.13
2019-03-29T08:19:31.492Z,69.03
2019-03-29T08:21:58.570Z,69.23
2019-03-29T08:24:25.280Z,67.17
2019-03-29T08:26:52.062Z,62.60
2019-03-29T08:29:18.823Z,61.80
2019-03-29T08:31:45.528Z,59.97
2019-03-29T08:34:12.624Z,61.20
2019-03-29T08:36:39.436Z,59.63
2019-03-29T08:39:06.253Z,57.87
2019-03-29T08:41:33.080Z,59.53
2019-03-29T08:44:00.662Z,56.87
2019-03-29T08:46:27.588Z,56.27
2019-03-29T08:48:54.263Z,56.23
2019-03-29T08:51:21.218Z,53.23
2019-03-29T08:53:49.032Z,50.07
2019-03-29T08:56:16.033Z,53.03
2019-03-29T08:58:46.234Z,48.40
2019-03-29T09:01:19.032Z,50.60
2019-03-29T09:03:45.212Z,51.27
2019-03-29T09:06:12.144Z,48.77
2019-03-29T09:08:39.526Z,47.07
2019-03-29T09:11:07.777Z,46.10
2019-03-29T09:13:34.677Z,45.77
2019-03-29T09:16:02.010Z,42.77
2019-03-29T09:18:28.931Z,45.43
2019-03-29T09:20:55.871Z,47.47
2019-03-29T09:23:22.826Z,38.73
2019-03-29T09:25:49.858Z,39.13
2019-03-29T09:28:16.705Z,41.97
2019-03-29T09:30:43.698Z,40.70
2019-03-29T09:33:11.275Z,43.43
2019-03-29T09:35:38.428Z,44.90
2019-03-29T09:38:05.266Z,45.77
2019-03-29T09:40:35.317Z,42.37
2019-03-29T09:43:09.321Z,41.20
2019-03-29T09:45:32.931Z,43.13
2019-03-29T09:47:59.825Z,39.13
2019-03-29T09:50:26.711Z,39.70
2019-03-29T09:52:53.654Z,38.70
2019-03-29T09:55:20.468Z,41.47
2019-03-29T09:57:47.841Z,43.97
2019-03-29T10:00:20.881Z,40.30
2019-03-29T10:02:43.798Z,37.60
2019-03-29T10:05:10.806Z,36.67
2019-03-29T10:07:37.491Z,36.40
2019-03-29T10:10:05.049Z,35.87
2019-03-29T10:12:42.644Z,36.03
2019-03-29T10:15:00.379Z,36.47
2019-03-29T10:17:27.056Z,34.57
2019-03-29T10:19:53.951Z,33.13
2019-03-29T10:22:20.728Z,34.70
2019-03-29T10:24:47.453Z,37.17
2019-03-29T10:27:14.093Z,35.03
2019-03-29T10:29:41.088Z,30.73
2019-03-29T10:32:09.736Z,30.73
2019-03-29T10:34:37.680Z,31.40
2019-03-29T10:37:04.690Z,31.90
2019-03-29T10:39:35.425Z,20.93
2019-03-29T10:42:01.050Z,23.10
2019-03-29T10:44:27.690Z,25.33
2019-03-29T10:46:54.452Z,20.00
2019-03-29T10:49:21.339Z,20.13
2019-03-29T10:51:48.122Z,19.70
2019-03-29T10:54:14.873Z,17.97
2019-03-29T10:56:41.613Z,21.00
2019-03-29T10:59:08.334Z,22.83
2019-03-29T11:01:34.961Z,16.17
2019-03-29T11:04:02.784Z,11.67
2019-03-29T11:06:29.574Z,14.33
2019-03-29T11:08:57.676Z,14.80
2019-03-29T11:11:24.682Z,14.87
2019-03-29T11:13:51.437Z,16.03
2019-03-29T11:16:18.218Z,18.53
2019-03-29T11:18:45.918Z,16.63
2019-03-29T11:21:12.853Z,14.57
2019-03-29T11:23:39.825Z,14.03
2019-03-29T11:26:06.679Z,14.70
2019-03-29T11:28:34.570Z,15.03
2019-03-29T11:31:01.233Z,15.63
2019-03-29T11:33:31.109Z,11.77
2019-03-29T11:35:57.881Z,13.57
2019-03-29T11:38:24.718Z,13.57
2019-03-29T11:40:51.466Z,11.00
2019-03-29T11:43:26.627Z,10.20
2019-03-29T11:45:46.693Z,9.53
2019-03-29T11:48:13.759Z,10.17
2019-03-29T11:50:40.565Z,10.57
2019-03-29T11:53:07.470Z,10.20
2019-03-29T11:55:34.844Z,11.63
2019-03-29T11:58:01.981Z,9.77
2019-03-29T12:00:33.301Z,10.67
2019-03-29T12:03:00.409Z,10.97
2019-03-29T12:05:27.285Z,11.27
2019-03-29T12:07:54.144Z,11.47
2019-03-29T12:10:21.313Z,11.50
2019-03-29T12:12:48.243Z,12.03
2019-03-29T12:15:15.365Z,9.37
2019-03-29T12:17:42.263Z,9.20
2019-03-29T12:20:09.364Z,10.80
2019-03-29T12:22:36.911Z,9.47
2019-03-29T12:25:05.723Z,8.77
2019-03-29T12:27:32.854Z,11.17
2019-03-29T12:29:59.765Z,11.73
2019-03-29T12:32:26.481Z,12.77
2019-03-29T12:34:53.301Z,13.23
2019-03-29T12:37:20.251Z,12.63
2019-03-29T12:39:47.201Z,15.37
2019-03-29T12:42:13.909Z,14.27
2019-03-29T12:44:40.553Z,14.00
2019-03-29T12:47:07.497Z,15.73
2019-03-29T12:49:34.174Z,15.53
2019-03-29T12:52:00.960Z,14.60
2019-03-29T12:54:27.602Z,15.33
2019-03-29T12:56:54.614Z,16.07
2019-03-29T12:59:21.446Z,15.57
2019-03-29T13:01:48.490Z,14.03
2019-03-29T13:04:15.321Z,13.80
2019-03-29T13:06:42.203Z,13.43
2019-03-29T13:09:08.957Z,12.77
2019-03-29T13:11:36.551Z,11.97
2019-03-29T13:14:09.987Z,11.30
2019-03-29T13:16:32.509Z,12.07
2019-03-29T13:19:00.423Z,10.90
2019-03-29T13:21:27.298Z,12.63
2019-03-29T13:23:54.016Z,11.73
2019-03-29T13:26:20.728Z,10.10
2019-03-29T13:28:47.525Z,11.67
2019-03-29T13:31:14.225Z,11.03
2019-03-29T13:33:42.799Z,11.13
2019-03-29T13:36:09.448Z,11.97
2019-03-29T13:38:36.182Z,9.67
2019-03-29T13:41:03.156Z,10.33
2019-03-29T13:43:38.256Z,10.23
2019-03-29T13:46:05.152Z,9.00
2019-03-29T13:48:31.791Z,12.30
2019-03-29T13:50:59.584Z,11.00
2019-03-29T13:53:26.771Z,11.77
2019-03-29T13:55:53.639Z,11.77
2019-03-29T13:58:20.395Z,12.50
2019-03-29T14:00:47.111Z,10.80
2019-03-29T14:03:13.901Z,11.40
2019-03-29T14:05:40.671Z,11.07
2019-03-29T14:08:08.531Z,12.43
2019-03-29T14:10:35.346Z,10.80
2019-03-29T14:13:02.152Z,10.83
2019-03-29T14:15:28.989Z,11.90
2019-03-29T14:17:55.677Z,12.50
2019-03-29T14:20:31.177Z,12.37
2019-03-29T14:22:58.022Z,13.77
2019-03-29T14:25:27.134Z,11.80
2019-03-29T14:27:55.022Z,13.17
2019-03-29T14:30:21.826Z,12.80
2019-03-29T14:32:48.664Z,12.47
2019-03-29T14:35:15.521Z,12.90
2019-03-29T14:37:42.391Z,13.03
2019-03-29T14:40:10.248Z,12.40
2019-03-29T14:42:37.609Z,13.80
2019-03-29T14:45:05.865Z,14.77
2019-03-29T14:47:42.735Z,14.13
2019-03-29T14:50:01.161Z,14.33
2019-03-29T14:52:27.922Z,15.77
2019-03-29T14:54:54.698Z,13.00
2019-03-29T14:57:21.473Z,16.03
2019-03-29T14:59:48.093Z,13.47
2019-03-29T15:02:15.036Z,15.30
2019-03-29T15:04:41.874Z,12.90
2019-03-29T15:07:08.712Z,16.87
2019-03-29T15:09:35.453Z,15.43
2019-03-29T15:12:02.302Z,15.93
2019-03-29T15:14:29.008Z,16.43
2019-03-29T15:16:55.656Z,16.13
2019-03-29T15:19:22.497Z,13.33
2019-03-29T15:21:49.200Z,14.43
2019-03-29T15:24:16.002Z,13.93
2019-03-29T15:26:42.746Z,14.93
2019-03-29T15:29:09.420Z,14.50
2019-03-29T15:31:36.054Z,13.97
2019-03-29T15:34:02.889Z,14.00
2019-03-29T15:36:29.675Z,14.70
2019-03-29T15:38:56.600Z,13.07
2019-03-29T15:41:23.108Z,13.47
2019-03-29T15:43:50.002Z,13.50
2019-03-29T15:46:16.887Z,13.20
2019-03-29T15:48:43.756Z,13.83
2019-03-29T15:51:10.415Z,28.37
2019-03-29T15:53:37.132Z,11.97
2019-03-29T15:56:03.722Z,12.20
2019-03-29T15:58:30.524Z,10.77
2019-03-29T16:00:57.523Z,11.90
2019-03-29T16:03:24.127Z,11.63
2019-03-29T16:05:50.701Z,12.87
2019-03-29T16:08:17.457Z,11.73
2019-03-29T16:10:44.175Z,11.67
2019-03-29T16:13:10.914Z,12.00
2019-03-29T16:15:38.493Z,12.43
2019-03-29T16:18:05.343Z,11.43
2019-03-29T16:20:32.139Z,12.17
2019-03-29T16:22:58.872Z,11.87
2019-03-29T16:25:26.799Z,12.37
2019-03-29T16:27:53.512Z,12.50
2019-03-29T16:30:20.407Z,12.63
2019-03-29T16:32:47.604Z,11.17
2019-03-29T16:35:14.219Z,9.60
2019-03-29T16:37:41.084Z,8.17
2019-03-29T16:40:08.232Z,8.73
2019-03-29T16:42:34.857Z,9.30
2019-03-29T16:45:01.948Z,8.57
2019-03-29T16:47:28.776Z,9.53
2019-03-29T16:49:55.543Z,9.07
2019-03-29T16:52:22.348Z,9.47
2019-03-29T16:54:49.131Z,10.83
2019-03-29T16:57:16.982Z,11.63
2019-03-29T16:59:43.712Z,13.57
2019-03-29T17:02:10.451Z,14.87
2019-03-29T17:04:37.075Z,14.33
2019-03-29T17:07:03.853Z,16.60
2019-03-29T17:09:30.735Z,12.70
2019-03-29T17:11:57.527Z,12.60
2019-03-29T17:14:24.189Z,16.20
2019-03-29T17:16:52.972Z,14.20
2019-03-29T17:19:19.282Z,18.10
2019-03-29T17:21:45.983Z,14.00
2019-03-29T17:24:13.083Z,14.97
2019-03-29T17:26:40.972Z,13.27
2019-03-29T17:29:07.602Z,12.60
2019-03-29T17:31:34.464Z,11.87
2019-03-29T17:34:01.277Z,12.47
2019-03-29T17:36:28.243Z,12.23
2019-03-29T17:38:55.100Z,11.33
2019-03-29T17:41:21.720Z,13.80
2019-03-29T17:43:48.392Z,13.07
2019-03-29T17:46:16.756Z,15.13
2019-03-29T17:48:43.619Z,13.63
2019-03-29T17:51:10.285Z,12.37
2019-03-29T17:53:37.008Z,14.17
2019-03-29T17:56:03.926Z,11.57
2019-03-29T17:58:30.664Z,13.27
2019-03-29T18:00:57.425Z,12.97
2019-03-29T18:03:24.273Z,15.33
2019-03-29T18:05:51.702Z,13.27
2019-03-29T18:08:18.368Z,14.20
2019-03-29T18:10:45.035Z,18.20
2019-03-29T18:13:12.009Z,14.43
2019-03-29T18:15:38.937Z,14.27
2019-03-29T18:18:05.801Z,13.63
2019-03-29T18:20:32.536Z,12.60
2019-03-29T18:22:59.291Z,11.20
2019-03-29T18:25:26.036Z,12.93
2019-03-29T18:27:52.778Z,13.00
2019-03-29T18:30:23.271Z,13.17
2019-03-29T18:32:50.041Z,12.23
2019-03-29T18:35:16.822Z,13.07
2019-03-29T18:37:43.685Z,14.73
2019-03-29T18:40:17.075Z,14.07
2019-03-29T18:42:43.733Z,14.50
2019-03-29T18:45:10.671Z,14.03
2019-03-29T18:47:37.426Z,13.70
2019-03-29T18:50:04.925Z,16.17
2019-03-29T18:52:31.718Z,14.90
2019-03-29T18:54:58.466Z,15.27
2019-03-29T18:57:25.093Z,15.00
2019-03-29T18:59:51.786Z,16.63
2019-03-29T19:02:18.613Z,15.53
2019-03-29T19:04:47.304Z,15.43
2019-03-29T19:07:18.394Z,14.30
2019-03-29T19:09:45.205Z,14.83
2019-03-29T19:12:13.123Z,14.10
2019-03-29T19:14:41.581Z,14.73
2019-03-29T19:17:08.537Z,15.30
2019-03-29T19:19:35.382Z,14.70
2019-03-29T19:22:02.591Z,16.07
2019-03-29T19:24:29.486Z,15.93
2019-03-29T19:27:17.727Z,15.40
2019-03-29T19:30:11.011Z,14.43
2019-03-29T19:32:19.311Z,13.67
2019-03-29T19:34:46.173Z,16.57
2019-03-29T19:37:15.045Z,15.33
2019-03-29T19:39:41.869Z,16.20
2019-03-29T19:42:08.881Z,14.33
2019-03-29T19:44:35.651Z,18.43
2019-03-29T19:47:12.814Z,19.23
2019-03-29T19:49:31.298Z,16.37
2019-03-29T19:51:58.988Z,18.00
2019-03-29T19:54:25.694Z,18.30
2019-03-29T19:56:52.645Z,18.80
2019-03-29T19:59:19.433Z,17.17
2019-03-29T20:01:46.320Z,18.40
2019-03-29T20:04:13.477Z,18.17
2019-03-29T20:06:40.187Z,17.73
2019-03-29T20:09:08.294Z,17.67
2019-03-29T20:11:35.299Z,19.60
2019-03-29T20:14:02.648Z,15.70
2019-03-29T20:16:29.311Z,16.60
2019-03-29T20:18:55.959Z,17.27
2019-03-29T20:21:22.701Z,16.97
2019-03-29T20:23:50.630Z,16.13
2019-03-29T20:26:18.468Z,15.73
2019-03-29T20:28:45.135Z,16.97
2019-03-29T20:31:13.129Z,17.20
2019-03-29T20:33:39.999Z,17.13
2019-03-29T20:36:06.842Z,18.10
2019-03-29T20:38:33.641Z,17.73
2019-03-29T20:41:00.827Z,17.83
2019-03-29T20:43:27.568Z,18.10
2019-03-29T20:45:54.404Z,17.30
2019-03-29T20:48:23.443Z,20.87
2019-03-29T20:50:50.641Z,18.07
2019-03-29T20:53:17.503Z,18.37
2019-03-29T20:55:44.253Z,17.60
2019-03-29T20:58:11.095Z,16.17
2019-03-29T21:00:37.869Z,18.53
2019-03-29T21:03:04.883Z,18.10
2019-03-29T21:05:31.727Z,18.53
2019-03-29T21:07:59.055Z,17.00
2019-03-29T21:10:25.911Z,17.17
2019-03-29T21:12:52.686Z,16.83
2019-03-29T21:15:19.639Z,17.23
2019-03-29T21:17:56.527Z,16.97
2019-03-29T21:20:19.075Z,19.17
2019-03-29T21:22:45.882Z,18.30
2019-03-29T21:25:12.679Z,17.73
2019-03-29T21:27:39.616Z,18.93
2019-03-29T21:30:10.532Z,17.60
2019-03-29T21:32:37.645Z,17.27
2019-03-29T21:35:06.243Z,17.50
2019-03-29T21:37:35.305Z,18.47
2019-03-29T21:40:05.851Z,18.43
2019-03-29T21:42:33.113Z,18.03
2019-03-29T21:45:00.382Z,17.90
2019-03-29T21:47:27.102Z,16.83
2019-03-29T21:49:53.976Z,18.23
2019-03-29T21:52:20.719Z,22.17
2019-03-29T21:54:47.487Z,19.40
2019-03-29T21:57:14.368Z,20.53
2019-03-29T21:59:41.275Z,19.50
2019-03-29T22:02:08.163Z,19.60
2019-03-29T22:04:35.146Z,19.07
2019-03-29T22:07:02.023Z,18.67
2019-03-29T22:09:36.758Z,19.27
2019-03-29T22:11:57.556Z,18.77
2019-03-29T22:14:24.179Z,18.70
2019-03-29T22:16:50.904Z,20.43
2019-03-29T22:19:17.659Z,19.67
2019-03-29T22:21:44.719Z,20.93
2019-03-29T22:24:14.911Z,19.07
2019-03-29T22:26:43.159Z,18.60
2019-03-29T22:29:09.932Z,18.90
2019-03-29T22:31:36.759Z,19.93
2019-03-29T22:34:03.450Z,19.43
2019-03-29T22:36:30.227Z,20.03
2019-03-29T22:38:57.037Z,19.63
2019-03-29T22:41:23.777Z,18.37
2019-03-29T22:43:50.472Z,19.97
2019-03-29T22:46:17.898Z,19.70
2019-03-29T22:48:52.061Z,21.17
2019-03-29T22:51:16.372Z,20.70
2019-03-29T22:53:43.025Z,18.13
2019-03-29T22:56:09.860Z,20.37
2019-03-29T22:58:36.627Z,19.97
2019-03-29T23:01:05.026Z,19.77
2019-03-29T23:03:31.884Z,20.23
2019-03-29T23:05:58.617Z,20.37
2019-03-29T23:08:25.350Z,18.93
2019-03-29T23:10:52.112Z,18.07
2019-03-29T23:13:19.858Z,17.90
2019-03-29T23:15:46.737Z,18.13
2019-03-29T23:18:13.410Z,19.93
2019-03-29T23:20:39.963Z,19.57
2019-03-29T23:23:06.586Z,19.60
2019-03-29T23:25:33.832Z,19.67
2019-03-29T23:28:00.694Z,18.90
2019-03-29T23:30:27.474Z,18.70
2019-03-29T23:32:54.548Z,17.60
2019-03-29T23:35:21.410Z,19.67
2019-03-29T23:37:48.187Z,19.03
2019-03-29T23:40:17.077Z,18.97
2019-03-29T23:42:43.731Z,17.60
2019-03-29T23:45:10.574Z,16.23
2019-03-29T23:47:38.012Z,19.07
2019-03-29T23:50:05.381Z,17.50
2019-03-29T23:52:32.105Z,17.87
2019-03-29T23:54:58.798Z,16.37
2019-03-29T23:57:26.681Z,16.83
2019-03-29T23:59:53.315Z,17.10
